Terminal Aerodrome Forecast
Issued by NWS Atlanta, GA

Home | Current Version | Previous Version | Text Only | Print | Product List | Glossary On
Versions: 1 2 3 4 5 6 7 8 9 10 11 12 13 14 15 16 17 18 19 20 21 22 23 24 25 26 27 28 29 30 31 32 33 34 35 36 37
801
FTAK31 PAJN 261743
TAFAHN
TAF
PAHN 261743Z 2618/2718 30012KT P6SM SCT180
     FM262200 13007KT P6SM BKN150
     FM270400 30007KT P6SM BKN150
     FM271000 10008KT P6SM -RA OVC040
     FM271400 10011KT P6SM BKN050 BKN100
      AMD LTD TO CLD VIS AND WIND=

USA.gov is the U.S. government's official web portal to all federal, state and local government web resources and services.